Main page
METAR-TAF:

METAR-TAF

Airports :

Granada, Spain

Base Aérea de Armilla

latitude: 37-08N, longitude: 003-38-08W, elevation: 700 m

Current weather observation

The report was made 4 hours and 39 minutes ago, at 12:00 UTC
Wind 8 kt from the North/Northwest
Temperature 31°C
Humidity 19%
Pressure 1016 hPa
Visibility 10 km or more
no clouds below 1500 m and no cumulonimbus

METAR: LEGA 221200Z 33008KT CAVOK 31/05 Q1016

Time: 18:39 (16:39 UTC)

Forecast

The report was made 2 hours and 39 minutes ago, at 14:00 UTC
Forecast valid from 22 at 15 UTC to 22 at 24 UTC
Wind 5 kt from the South/Southwest
Visibility 10 km or more
no clouds below 1500 m and no cumulonimbus

TAF: LEGA 221400Z 2215/2224 20005KT CAVOK

Weather observations and forecasts of more than 4000 airports (METAR and TAF reports).

The available stations are represented by yellow and red dots on the map.

Hover mouse over dot to see the name of the station.

Then click to see weather observations and forecasts.

To change the map : click on the green buttons with a black cross to zoom in, on the green button with a dash to zoom out, or on the green arrows for adjacent maps.


METAR-TAF: